This is the latest recevied weather packets stored in our database for station/object 9D9-WX. If no packets are shown the sender has not sent any weather packets the latest 10 day(s).
| Time | Temp. | Humidity | Pressure | Rain* | Wind** | Luminosity | Snow |
|---|---|---|---|---|---|---|---|
| 1777812310 | 6.67° C | 62% | 983.7 hPa | 0 mm | - | - | - |
| 1777811429 | 6.67° C | 65% | 984.8 hPa | 0 mm | - | - | - |
| 1777810510 | 6.11° C | 65% | 984.8 hPa | 0 mm | - | - | - |
| 1777809634 | 5.56° C | 65% | 984.8 hPa | 0 mm | - | - | - |
| 1777808710 | 5° C | 63% | 984.6 hPa | 0 mm | - | - | - |
| 1777807823 | 3.89° C | 66% | 983.8 hPa | 0 mm | - | - | - |
| 1777806909 | 3.89° C | 66% | 983.9 hPa | 0 mm | - | - | - |
| 1777806032 | 3.89° C | 66% | 983.9 hPa | 0 mm | - | - | - |
| 1777805109 | 3.33° C | 63% | 983.7 hPa | 0 mm | - | - | - |
| 1777804222 | 3.33° C | 67% | 984 hPa | 0 mm | - | - | - |
| 1777803309 | 3.33° C | 67% | 983.9 hPa | 0 mm | - | - | - |
| 1777802434 | 2.78° C | 67% | 983.9 hPa | 0 mm | - | - | - |
| 1777801509 | 2.78° C | 64% | 984.1 hPa | 0 mm | - | - | - |
| 1777800627 | 2.78° C | 65% | 984.1 hPa | 0 mm | - | - | - |
| 1777799709 | 2.22° C | 65% | 984 hPa | 0 mm | - | - | - |
| 1777798831 | 2.22° C | 65% | 984 hPa | 0 mm | - | - | - |
| 1777797909 | 2.22° C | 63% | 984.3 hPa | 0 mm | - | - | - |
| 1777797027 | 2.22° C | 64% | 984.5 hPa | 0 mm | - | - | - |
| 1777796109 | 2.22° C | 64% | 984.5 hPa | 0 mm | - | - | - |
| 1777795226 | 2.22° C | 63% | 984 hPa | 0 mm | - | - | - |
| 1777794310 | 1.67° C | 66% | 984.7 hPa | 0 mm | - | - | - |
| 1777793427 | 1.67° C | 66% | 984.7 hPa | 0 mm | - | - | - |
| 1777792510 | 1.67° C | 66% | 984.7 hPa | 0 mm | - | - | - |
| 1777791631 | 1.67° C | 66% | 984.7 hPa | 0 mm | - | - | - |
| 1777790709 | 2.22° C | 60% | 985.6 hPa | 0 mm | - | - | - |
* Rain latest hour (hover to see other rain measurements)
** Current wind speed in m/s (hover to see current wind gust speed)